Time;durP1;ratioP1;P1;durP2;ratioP2;P2;SDS_P1;SDS_P2;PMS_P1;PMS_P2;Temp;Humidity;BMP_temperature;BMP_pressure;BME280_temperature;BME280_humidity;BME280_pressure;Samples;Min_cycle;Max_cycle;Signal;HPM_P1;HPM_P2
2023/05/16 00:00:05;;;;;;;6.88;4.22;;;14.10;77.70;;;;;;5067962;28;20131;-75
2023/05/16 00:02:34;;;;;;;5.72;4.25;;;14.10;77.80;;;;;;5067939;28;20051;-74
2023/05/16 00:05:03;;;;;;;5.60;3.93;;;14.10;78.00;;;;;;5069828;28;20055;-74
2023/05/16 00:07:30;;;;;;;7.53;4.30;;;14.00;78.00;;;;;;5059845;28;20065;-70
2023/05/16 00:09:57;;;;;;;7.97;4.60;;;13.90;78.00;;;;;;5061870;28;20049;-70
2023/05/16 00:12:24;;;;;;;6.63;4.05;;;13.90;78.10;;;;;;5069857;28;20044;-76
2023/05/16 00:14:51;;;;;;;4.93;3.70;;;13.80;78.40;;;;;;5068600;28;20079;-75
2023/05/16 00:17:19;;;;;;;8.13;4.25;;;13.80;78.30;;;;;;5065498;28;20033;-76
2023/05/16 00:19:48;;;;;;;8.82;4.55;;;13.80;78.30;;;;;;5067716;28;20088;-74
2023/05/16 00:22:16;;;;;;;5.57;4.15;;;13.80;78.40;;;;;;5070384;28;20056;-69
2023/05/16 00:24:43;;;;;;;5.97;4.25;;;13.70;78.60;;;;;;5067813;28;20076;-68
2023/05/16 00:27:09;;;;;;;5.90;4.43;;;13.70;78.60;;;;;;5064665;28;20048;-76
2023/05/16 00:29:36;;;;;;;5.10;4.03;;;13.70;78.60;;;;;;5069084;28;20106;-76
2023/05/16 00:32:03;;;;;;;5.50;4.30;;;13.70;78.60;;;;;;5068861;28;20045;-64
2023/05/16 00:34:30;;;;;;;5.88;4.50;;;13.60;78.80;;;;;;5048398;28;20052;-64
2023/05/16 00:36:59;;;;;;;6.03;4.40;;;13.50;79.10;;;;;;5067508;28;20082;-63
2023/05/16 00:39:26;;;;;;;5.65;4.32;;;13.50;79.10;;;;;;5068985;28;20063;-63
2023/05/16 00:41:53;;;;;;;8.00;4.22;;;13.50;79.20;;;;;;5065514;28;20041;-63
2023/05/16 00:44:20;;;;;;;5.78;4.03;;;13.50;79.10;;;;;;5066639;28;20045;-63
2023/05/16 00:46:47;;;;;;;5.47;3.95;;;13.40;79.10;;;;;;5069404;28;20134;-70
2023/05/16 00:49:14;;;;;;;6.57;4.40;;;13.40;79.30;;;;;;5068660;28;20037;-69
2023/05/16 00:51:41;;;;;;;5.32;3.95;;;13.40;79.30;;;;;;5062383;28;20139;-62
2023/05/16 00:54:11;;;;;;;6.70;4.30;;;13.30;79.50;;;;;;5065562;28;20579;-60
2023/05/16 00:56:38;;;;;;;6.22;4.28;;;13.40;79.40;;;;;;5068464;28;20036;-62
2023/05/16 00:59:05;;;;;;;8.68;4.45;;;13.30;79.30;;;;;;5066875;28;20455;-64
2023/05/16 01:01:33;;;;;;;7.32;4.45;;;13.30;79.50;;;;;;5035696;28;20110;-74
2023/05/16 01:04:00;;;;;;;5.65;4.43;;;13.20;79.70;;;;;;5059664;28;20032;-76
2023/05/16 01:06:27;;;;;;;6.00;4.38;;;13.20;79.90;;;;;;5061276;28;20052;-66
2023/05/16 01:08:54;;;;;;;6.00;4.30;;;13.20;80.10;;;;;;5064456;28;20041;-66
2023/05/16 01:11:28;;;;;;;7.80;5.07;;;13.30;80.10;;;;;;5041554;28;20052;-61
2023/05/16 01:14:06;;;;;;;6.47;4.57;;;13.20;80.20;;;;;;5057093;28;20048;-60
2023/05/16 01:16:40;;;;;;;6.85;4.30;;;13.20;80.30;;;;;;5031790;28;20048;-76
2023/05/16 01:19:15;;;;;;;6.95;4.40;;;13.20;80.30;;;;;;5056272;28;20059;-76
2023/05/16 01:21:48;;;;;;;6.13;4.38;;;13.20;80.10;;;;;;5062629;28;20075;-68
2023/05/16 01:24:24;;;;;;;7.90;5.20;;;13.20;80.10;;;;;;5060963;28;20040;-68
2023/05/16 01:26:53;;;;;;;6.45;4.30;;;13.20;80.10;;;;;;5033779;28;20059;-67
2023/05/16 01:29:20;;;;;;;5.65;4.45;;;13.20;80.20;;;;;;5031410;28;20059;-68
2023/05/16 01:31:48;;;;;;;7.50;4.57;;;13.20;80.20;;;;;;5041418;28;20072;-76
2023/05/16 01:34:15;;;;;;;8.88;4.80;;;13.10;80.30;;;;;;5055776;28;20040;-75
2023/05/16 01:36:48;;;;;;;6.20;4.60;;;13.10;80.40;;;;;;5057817;28;20070;-76
2023/05/16 01:39:20;;;;;;;7.88;4.70;;;13.00;80.60;;;;;;5036767;28;20049;-76
2023/05/16 01:41:58;;;;;;;7.35;4.82;;;13.00;80.60;;;;;;5056212;28;20049;-66
2023/05/16 01:44:31;;;;;;;6.05;5.00;;;13.00;80.60;;;;;;5060248;28;20063;-66
2023/05/16 01:47:02;;;;;;;6.70;4.88;;;12.90;80.70;;;;;;5049976;28;20076;-63
2023/05/16 01:49:35;;;;;;;7.32;5.20;;;12.80;80.60;;;;;;5060914;28;20048;-64
2023/05/16 01:52:07;;;;;;;7.53;5.18;;;12.80;80.60;;;;;;5048643;28;20037;-66
2023/05/16 01:54:39;;;;;;;7.28;4.80;;;12.80;80.60;;;;;;5058129;28;20098;-65
2023/05/16 01:57:09;;;;;;;6.82;4.78;;;12.70;80.70;;;;;;5062254;28;20483;-65
2023/05/16 01:59:37;;;;;;;5.97;4.53;;;12.70;80.70;;;;;;5044758;28;20044;-65
2023/05/16 02:02:04;;;;;;;7.22;5.15;;;12.70;80.70;;;;;;5064709;28;20043;-63
2023/05/16 02:04:31;;;;;;;7.90;4.75;;;12.70;80.60;;;;;;5047519;28;20045;-63
2023/05/16 02:06:59;;;;;;;6.78;4.97;;;12.60;80.60;;;;;;5064446;28;20049;-62
2023/05/16 02:09:26;;;;;;;10.15;5.82;;;12.60;80.60;;;;;;5064588;28;20044;-61
2023/05/16 02:11:53;;;;;;;8.73;5.35;;;12.60;80.60;;;;;;5046867;28;20075;-69
2023/05/16 02:14:21;;;;;;;8.48;5.90;;;12.60;80.60;;;;;;5046225;28;20107;-67
2023/05/16 02:16:48;;;;;;;7.88;5.35;;;12.60;80.70;;;;;;5039480;28;20048;-68
2023/05/16 02:19:17;;;;;;;7.85;5.18;;;12.60;80.70;;;;;;5061526;28;20064;-68
2023/05/16 02:21:44;;;;;;;7.25;5.72;;;12.50;80.80;;;;;;5061635;28;20048;-64
2023/05/16 02:24:11;;;;;;;8.88;5.97;;;12.50;80.90;;;;;;5057956;28;20053;-63
2023/05/16 02:26:38;;;;;;;8.35;6.55;;;12.50;80.90;;;;;;5061185;28;20055;-63
2023/05/16 02:29:06;;;;;;;9.98;6.47;;;12.50;81.00;;;;;;5068504;28;20476;-64
2023/05/16 02:31:34;;;;;;;9.85;6.18;;;12.50;80.90;;;;;;5065496;28;20052;-65
2023/05/16 02:34:02;;;;;;;7.88;6.15;;;12.50;80.90;;;;;;5069483;28;20128;-64
2023/05/16 02:36:29;;;;;;;7.15;5.88;;;12.50;81.00;;;;;;5070513;28;20925;-74
2023/05/16 02:38:56;;;;;;;9.27;5.70;;;12.40;81.00;;;;;;5070370;28;20041;-76
2023/05/16 02:41:23;;;;;;;7.60;5.45;;;12.40;81.10;;;;;;5067699;28;20042;-60
2023/05/16 02:43:50;;;;;;;7.63;5.25;;;12.40;81.20;;;;;;5051199;28;20052;-61
2023/05/16 02:46:21;;;;;;;8.15;5.60;;;12.40;81.20;;;;;;5066422;28;20041;-68
2023/05/16 02:48:50;;;;;;;7.47;6.05;;;12.40;81.20;;;;;;5066950;28;20048;-68
2023/05/16 02:51:17;;;;;;;8.50;5.55;;;12.40;81.30;;;;;;5069738;28;20454;-75
2023/05/16 02:53:44;;;;;;;8.90;5.60;;;12.40;81.50;;;;;;5040679;28;20045;-76
2023/05/16 02:56:11;;;;;;;8.27;5.97;;;12.40;81.70;;;;;;5046708;28;20041;-77
2023/05/16 02:58:40;;;;;;;6.93;5.15;;;12.30;82.00;;;;;;5065656;28;20048;-76
2023/05/16 03:01:07;;;;;;;8.02;5.55;;;12.30;82.10;;;;;;5067111;28;20066;-70
2023/05/16 03:03:36;;;;;;;7.72;6.07;;;12.30;82.00;;;;;;5057035;28;20140;-71
2023/05/16 03:06:05;;;;;;;7.70;5.68;;;12.30;81.80;;;;;;5065319;28;20507;-62
2023/05/16 03:08:33;;;;;;;12.00;6.15;;;12.20;82.00;;;;;;5068105;28;20149;-63
2023/05/16 03:11:00;;;;;;;7.07;5.68;;;12.20;82.00;;;;;;5047000;28;20585;-61
2023/05/16 03:13:28;;;;;;;9.05;5.97;;;12.20;82.10;;;;;;5063582;28;20048;-61
2023/05/16 03:15:58;;;;;;;7.07;5.20;;;12.20;81.90;;;;;;5046837;28;20415;-61
2023/05/16 03:18:25;;;;;;;8.10;5.38;;;12.20;81.80;;;;;;5068628;28;20542;-61
2023/05/16 03:20:52;;;;;;;7.90;6.00;;;12.20;81.80;;;;;;5067049;28;20075;-66
2023/05/16 03:23:21;;;;;;;7.90;5.38;;;12.10;81.70;;;;;;5065439;28;20045;-66
2023/05/16 03:25:49;;;;;;;9.23;5.72;;;12.10;81.80;;;;;;5062149;28;20125;-75
2023/05/16 03:28:17;;;;;;;7.38;5.72;;;12.00;82.20;;;;;;5044974;28;20106;-75
2023/05/16 03:30:44;;;;;;;8.30;5.57;;;12.00;82.50;;;;;;5060205;28;20557;-64
2023/05/16 03:33:12;;;;;;;7.60;5.72;;;11.90;82.70;;;;;;5064201;28;20395;-64
2023/05/16 03:35:40;;;;;;;10.23;6.43;;;11.90;82.90;;;;;;5050707;28;20396;-63
2023/05/16 03:38:07;;;;;;;7.18;5.72;;;12.00;82.80;;;;;;5064064;28;20135;-62
2023/05/16 03:40:35;;;;;;;10.10;5.93;;;11.90;82.80;;;;;;5066751;28;20045;-61
2023/05/16 03:43:02;;;;;;;7.75;5.85;;;12.00;82.60;;;;;;5067619;28;20118;-62
2023/05/16 03:45:30;;;;;;;8.30;5.40;;;12.00;82.40;;;;;;5067415;28;20099;-65
2023/05/16 03:47:57;;;;;;;8.52;6.00;;;12.00;82.30;;;;;;5062259;28;20032;-66
2023/05/16 03:50:24;;;;;;;8.35;5.60;;;11.90;82.50;;;;;;5058048;28;20442;-67
2023/05/16 03:52:52;;;;;;;8.32;5.88;;;11.90;82.30;;;;;;5060885;28;20041;-67
2023/05/16 03:55:19;;;;;;;7.28;5.80;;;11.90;82.40;;;;;;5063018;28;20047;-67
2023/05/16 03:57:48;;;;;;;8.85;5.60;;;11.90;82.30;;;;;;5063293;28;20134;-68
2023/05/16 04:00:16;;;;;;;7.55;5.80;;;11.90;82.20;;;;;;5064640;28;20053;-68
2023/05/16 04:02:43;;;;;;;7.47;5.50;;;11.90;82.20;;;;;;5068142;28;20046;-68
2023/05/16 04:05:12;;;;;;;9.27;5.60;;;11.90;82.20;;;;;;5061281;28;20055;-67
2023/05/16 04:07:39;;;;;;;7.30;5.20;;;11.80;82.40;;;;;;5067412;28;20143;-68
2023/05/16 04:10:06;;;;;;;9.75;6.03;;;11.80;82.40;;;;;;5065878;28;20040;-68
2023/05/16 04:12:33;;;;;;;7.40;5.13;;;11.80;82.40;;;;;;5062394;28;20048;-75
2023/05/16 04:15:02;;;;;;;7.22;5.10;;;11.80;82.40;;;;;;5057228;28;20036;-75
2023/05/16 04:17:29;;;;;;;7.60;5.97;;;11.80;82.50;;;;;;5059043;28;20053;-62
2023/05/16 04:19:56;;;;;;;7.50;5.50;;;11.80;82.60;;;;;;5065918;28;20048;-64
2023/05/16 04:22:23;;;;;;;7.97;5.93;;;11.80;82.60;;;;;;5065770;28;20052;-69
2023/05/16 04:24:50;;;;;;;9.13;5.75;;;11.80;82.50;;;;;;5064906;28;20044;-71
2023/05/16 04:27:17;;;;;;;8.65;6.47;;;11.80;82.70;;;;;;5066287;28;20155;-69
2023/05/16 04:29:44;;;;;;;9.18;6.40;;;11.80;82.80;;;;;;5066551;28;20036;-69
2023/05/16 04:32:12;;;;;;;8.63;6.55;;;11.80;82.70;;;;;;5067861;28;20106;-67
2023/05/16 04:34:39;;;;;;;8.77;6.55;;;11.80;82.70;;;;;;5065101;28;20049;-67
2023/05/16 04:37:07;;;;;;;7.55;5.88;;;11.80;82.60;;;;;;5068446;28;20170;-67
2023/05/16 04:39:34;;;;;;;7.93;6.38;;;11.90;82.70;;;;;;5064176;28;20045;-67
2023/05/16 04:42:02;;;;;;;8.45;6.18;;;11.90;82.60;;;;;;5068844;28;20063;-64
2023/05/16 04:44:29;;;;;;;8.23;5.55;;;11.90;82.60;;;;;;5065672;28;20052;-64
2023/05/16 04:46:55;;;;;;;9.00;6.00;;;11.90;82.90;;;;;;5063686;28;20123;-68
2023/05/16 04:49:24;;;;;;;8.65;6.05;;;11.80;82.80;;;;;;5067376;28;20075;-67
2023/05/16 04:51:51;;;;;;;6.90;5.30;;;11.80;83.00;;;;;;5058131;28;20036;-78
2023/05/16 04:54:17;;;;;;;7.03;5.30;;;11.80;82.90;;;;;;5064953;28;20075;-76
2023/05/16 04:56:44;;;;;;;8.10;5.72;;;11.80;82.90;;;;;;5063454;28;20051;-63
2023/05/16 04:59:11;;;;;;;8.45;5.60;;;11.90;82.90;;;;;;5066089;28;20040;-63
2023/05/16 05:01:38;;;;;;;11.18;6.45;;;11.90;82.80;;;;;;5068374;28;20057;-63
2023/05/16 05:04:05;;;;;;;7.88;5.93;;;11.90;82.80;;;;;;5045195;28;20036;-64
2023/05/16 05:06:33;;;;;;;9.43;6.53;;;11.90;82.90;;;;;;5064903;28;20037;-75
2023/05/16 05:09:00;;;;;;;8.65;6.28;;;11.90;83.10;;;;;;5062014;28;20044;-76
2023/05/16 05:11:27;;;;;;;9.52;6.53;;;11.90;83.20;;;;;;5063974;28;20052;-63
2023/05/16 05:13:54;;;;;;;8.43;6.00;;;12.00;83.20;;;;;;5059051;28;20045;-64
2023/05/16 05:16:21;;;;;;;7.88;5.72;;;12.00;83.20;;;;;;5060230;28;20108;-63
2023/05/16 05:18:48;;;;;;;8.52;5.85;;;12.10;83.10;;;;;;5066612;28;20060;-63
2023/05/16 05:21:15;;;;;;;8.40;6.25;;;12.10;83.30;;;;;;5058923;28;20051;-69
2023/05/16 05:23:43;;;;;;;8.70;6.78;;;12.20;83.30;;;;;;5063347;28;20064;-68
2023/05/16 05:26:10;;;;;;;10.77;6.88;;;12.20;83.20;;;;;;5062613;28;20044;-65
2023/05/16 05:28:37;;;;;;;10.45;6.63;;;12.20;83.20;;;;;;5061117;28;20041;-64
2023/05/16 05:31:05;;;;;;;8.80;6.35;;;12.20;83.20;;;;;;5064231;28;20373;-78
2023/05/16 05:33:31;;;;;;;8.90;6.32;;;12.20;83.40;;;;;;5067843;28;20110;-75
2023/05/16 05:35:58;;;;;;;8.32;6.47;;;12.20;83.60;;;;;;5060685;28;20056;-68
2023/05/16 05:38:25;;;;;;;9.38;6.43;;;12.20;83.70;;;;;;5059637;28;20053;-68
2023/05/16 05:40:53;;;;;;;11.13;6.63;;;12.30;83.30;;;;;;5058804;28;20066;-61
2023/05/16 05:43:20;;;;;;;11.05;6.97;;;12.30;83.30;;;;;;5049807;28;20044;-61
2023/05/16 05:45:47;;;;;;;9.88;7.20;;;12.30;83.20;;;;;;5052729;28;20040;-59
2023/05/16 05:48:14;;;;;;;9.02;6.45;;;12.30;83.20;;;;;;5053548;28;20057;-61
2023/05/16 05:50:41;;;;;;;9.05;6.53;;;12.30;83.10;;;;;;5061342;28;20040;-75
2023/05/16 05:53:08;;;;;;;9.75;6.55;;;12.40;83.10;;;;;;5062167;28;20067;-77
2023/05/16 05:55:35;;;;;;;10.30;6.53;;;12.30;82.90;;;;;;5056788;28;20046;-59
2023/05/16 05:58:03;;;;;;;9.90;7.18;;;12.40;82.90;;;;;;5066659;28;20048;-61
2023/05/16 06:00:30;;;;;;;10.32;6.88;;;12.40;82.80;;;;;;5062020;28;20498;-76
2023/05/16 06:02:58;;;;;;;11.30;7.45;;;12.40;82.90;;;;;;5062967;28;20483;-76
2023/05/16 06:05:24;;;;;;;9.45;6.70;;;12.50;82.70;;;;;;5063172;28;20048;-61
2023/05/16 06:07:51;;;;;;;7.72;5.95;;;12.50;82.70;;;;;;5063007;28;20032;-62
2023/05/16 06:10:21;;;;;;;9.57;7.13;;;12.50;82.80;;;;;;5047019;28;20037;-62
2023/05/16 06:12:48;;;;;;;10.32;6.85;;;12.60;82.50;;;;;;5061347;28;20048;-77
2023/05/16 06:15:17;;;;;;;11.80;7.07;;;12.50;82.20;;;;;;5061276;28;20072;-76
2023/05/16 06:17:43;;;;;;;10.68;7.18;;;12.50;82.40;;;;;;5056806;28;20048;-76
2023/05/16 06:20:11;;;;;;;10.27;7.45;;;12.50;82.70;;;;;;5059772;28;20144;-78
2023/05/16 06:22:38;;;;;;;9.00;6.72;;;12.50;82.80;;;;;;5060165;28;20033;-63
2023/05/16 06:25:06;;;;;;;11.07;7.10;;;12.60;82.90;;;;;;5065029;28;20484;-63
2023/05/16 06:27:33;;;;;;;9.65;6.78;;;12.50;83.00;;;;;;5062256;28;20040;-64
2023/05/16 06:30:00;;;;;;;10.02;7.20;;;12.50;83.30;;;;;;5066258;28;20045;-63
2023/05/16 06:32:28;;;;;;;9.23;6.60;;;12.50;83.30;;;;;;5067660;28;20041;-64
2023/05/16 06:34:55;;;;;;;9.55;7.15;;;12.50;82.80;;;;;;5064481;28;20491;-65
2023/05/16 06:37:22;;;;;;;10.73;7.47;;;12.60;82.60;;;;;;5066384;28;20106;-69
2023/05/16 06:39:49;;;;;;;12.15;8.07;;;12.60;82.30;;;;;;5065457;28;20412;-69
2023/05/16 06:42:16;;;;;;;10.80;7.47;;;12.60;82.20;;;;;;5063773;28;20057;-68
2023/05/16 06:44:43;;;;;;;10.10;7.22;;;12.60;82.30;;;;;;5050801;28;20051;-67
2023/05/16 06:47:11;;;;;;;11.05;7.57;;;12.60;82.40;;;;;;5060146;28;20049;-68
2023/05/16 06:49:39;;;;;;;11.13;6.75;;;12.60;82.90;;;;;;5060377;28;20470;-68
2023/05/16 06:52:07;;;;;;;11.88;7.15;;;12.50;82.80;;;;;;5050789;28;20047;-64
2023/05/16 06:54:33;;;;;;;8.80;6.18;;;12.50;82.80;;;;;;5057615;28;20049;-63
2023/05/16 06:57:02;;;;;;;13.02;6.93;;;12.60;82.70;;;;;;5062826;28;20048;-64
2023/05/16 06:59:29;;;;;;;10.40;6.78;;;12.60;82.90;;;;;;5058779;28;20077;-63
2023/05/16 07:01:56;;;;;;;10.02;6.90;;;12.50;83.10;;;;;;5056139;28;20058;-74
2023/05/16 07:04:23;;;;;;;8.35;5.80;;;12.50;83.10;;;;;;5062493;28;20049;-74
2023/05/16 07:06:51;;;;;;;9.30;5.40;;;12.50;83.20;;;;;;5065250;28;20044;-61
2023/05/16 07:09:18;;;;;;;8.52;5.25;;;12.50;83.20;;;;;;5060343;28;20047;-61
2023/05/16 07:11:46;;;;;;;9.57;5.72;;;12.60;83.10;;;;;;5064611;28;20072;-67
2023/05/16 07:14:12;;;;;;;9.93;5.90;;;12.60;83.10;;;;;;5065610;28;20052;-67
2023/05/16 07:16:39;;;;;;;7.82;4.88;;;12.60;83.20;;;;;;5065040;28;20044;-75
2023/05/16 07:19:07;;;;;;;8.90;4.63;;;12.60;83.50;;;;;;5059298;28;20039;-74
2023/05/16 07:21:34;;;;;;;8.63;4.70;;;12.60;83.40;;;;;;5065085;28;20057;-64
2023/05/16 07:24:02;;;;;;;7.93;4.95;;;12.60;83.50;;;;;;5064783;28;20040;-64
2023/05/16 07:26:29;;;;;;;8.13;5.20;;;12.60;83.50;;;;;;5064051;28;20053;-75
2023/05/16 07:28:56;;;;;;;7.68;4.82;;;12.60;83.90;;;;;;5064527;28;20048;-73
2023/05/16 07:31:24;;;;;;;8.10;4.88;;;12.60;83.60;;;;;;5063261;28;20047;-62
2023/05/16 07:33:51;;;;;;;8.50;5.28;;;12.60;83.50;;;;;;5064491;28;20041;-61
2023/05/16 07:36:17;;;;;;;7.80;5.00;;;12.60;83.70;;;;;;5064414;28;20349;-63
2023/05/16 07:38:45;;;;;;;7.53;4.65;;;12.60;83.40;;;;;;5063625;28;20507;-64
2023/05/16 07:41:13;;;;;;;7.80;4.47;;;12.70;83.50;;;;;;5060443;28;20044;-61
2023/05/16 07:43:40;;;;;;;7.82;5.10;;;12.70;83.60;;;;;;5066000;28;20052;-61
2023/05/16 07:46:07;;;;;;;8.20;4.68;;;12.70;83.60;;;;;;5061139;28;20036;-64
2023/05/16 07:48:34;;;;;;;8.40;4.72;;;12.80;83.90;;;;;;5062850;28;20055;-63
2023/05/16 07:51:01;;;;;;;8.23;4.70;;;12.90;84.10;;;;;;5065936;28;20036;-73
2023/05/16 07:53:27;;;;;;;9.07;5.10;;;12.90;84.10;;;;;;5067959;28;20040;-72
2023/05/16 07:55:55;;;;;;;7.72;5.07;;;12.90;84.20;;;;;;5064285;28;20498;-65
2023/05/16 07:58:23;;;;;;;6.72;4.13;;;12.90;84.40;;;;;;5064551;28;20048;-65
2023/05/16 08:00:50;;;;;;;7.55;4.20;;;13.00;84.20;;;;;;5055425;28;20045;-76
2023/05/16 08:03:17;;;;;;;7.00;4.60;;;13.00;83.50;;;;;;5067515;28;20147;-75
2023/05/16 08:05:44;;;;;;;7.15;4.25;;;13.00;83.40;;;;;;5064940;28;20131;-63
2023/05/16 08:08:11;;;;;;;7.90;3.67;;;13.00;83.00;;;;;;5067212;28;20033;-61
2023/05/16 08:10:38;;;;;;;8.43;4.05;;;13.00;83.00;;;;;;5063175;28;20042;-63
2023/05/16 08:13:05;;;;;;;6.68;3.97;;;12.90;82.90;;;;;;5064557;28;20056;-63
2023/05/16 08:15:33;;;;;;;6.47;3.58;;;12.90;82.30;;;;;;5060476;28;20041;-64
2023/05/16 08:18:00;;;;;;;5.47;3.15;;;12.90;82.40;;;;;;5067119;28;20051;-64
2023/05/16 08:20:27;;;;;;;4.20;2.20;;;12.80;82.40;;;;;;5064010;28;20052;-77
2023/05/16 08:22:54;;;;;;;5.50;1.73;;;12.80;81.30;;;;;;5067123;28;20689;-75
2023/05/16 08:25:21;;;;;;;3.08;1.00;;;12.70;81.60;;;;;;5061516;28;20419;-67
2023/05/16 08:27:49;;;;;;;1.30;0.70;;;12.70;81.30;;;;;;5059638;28;20048;-65
2023/05/16 08:30:16;;;;;;;1.88;0.60;;;12.60;81.40;;;;;;5065821;28;20049;-63
2023/05/16 08:32:44;;;;;;;1.45;0.50;;;12.60;80.60;;;;;;5060469;28;20045;-62
2023/05/16 08:35:11;;;;;;;1.08;0.57;;;12.60;80.30;;;;;;5063427;28;20043;-66
2023/05/16 08:37:38;;;;;;;0.82;0.40;;;12.60;80.40;;;;;;5065591;28;20053;-68
2023/05/16 08:40:09;;;;;;;2.42;0.57;;;12.50;80.10;;;;;;5064767;28;20056;-68
2023/05/16 08:42:36;;;;;;;1.10;0.50;;;12.60;80.20;;;;;;5065846;28;20098;-67
2023/05/16 08:45:05;;;;;;;0.40;0.30;;;12.60;80.50;;;;;;5062427;28;20106;-67
2023/05/16 08:47:33;;;;;;;1.60;0.40;;;12.70;80.60;;;;;;5067176;28;20423;-68
2023/05/16 08:50:03;;;;;;;2.88;0.50;;;12.70;80.00;;;;;;5062377;28;20545;-69
2023/05/16 08:52:32;;;;;;;2.20;0.80;;;12.70;79.90;;;;;;5062614;28;20082;-67
2023/05/16 08:55:04;;;;;;;1.27;0.50;;;12.80;79.60;;;;;;5056107;28;20033;-67
2023/05/16 08:57:33;;;;;;;2.05;0.70;;;12.90;79.60;;;;;;5065478;28;20113;-67
2023/05/16 09:00:00;;;;;;;2.15;0.60;;;12.90;79.40;;;;;;5065541;28;20059;-67
2023/05/16 09:02:27;;;;;;;1.05;0.70;;;12.90;79.00;;;;;;5056809;28;20047;-76
2023/05/16 09:04:57;;;;;;;1.38;0.60;;;12.80;78.60;;;;;;5065215;28;20415;-78
2023/05/16 09:07:25;;;;;;;1.77;0.52;;;12.80;78.50;;;;;;5058915;28;20560;-76
2023/05/16 09:09:52;;;;;;;2.47;0.65;;;12.90;78.40;;;;;;5047475;28;20128;-78
2023/05/16 09:12:21;;;;;;;4.57;0.80;;;13.00;78.20;;;;;;5064394;28;20120;-77
2023/05/16 09:14:48;;;;;;;3.92;1.00;;;13.20;78.00;;;;;;5062752;28;20516;-78
2023/05/16 09:17:15;;;;;;;3.78;1.13;;;13.20;77.40;;;;;;5065503;28;20048;-75
2023/05/16 09:19:43;;;;;;;4.13;1.08;;;13.30;76.20;;;;;;5066262;28;20052;-76
2023/05/16 09:22:12;;;;;;;3.88;1.20;;;13.40;75.10;;;;;;5060656;28;20514;-64
2023/05/16 09:24:41;;;;;;;3.17;1.10;;;13.40;74.60;;;;;;5064634;28;20048;-65
2023/05/16 09:27:09;;;;;;;4.63;1.30;;;13.50;74.40;;;;;;5066670;28;20412;-68
2023/05/16 09:29:36;;;;;;;4.97;1.40;;;13.60;73.40;;;;;;5061321;28;20044;-68
2023/05/16 09:32:10;;;;;;;5.63;1.25;;;13.60;73.60;;;;;;5063421;28;20052;-63
2023/05/16 09:34:44;;;;;;;3.63;1.10;;;13.60;72.80;;;;;;5063389;28;20052;-62
2023/05/16 09:37:11;;;;;;;6.55;1.60;;;13.60;71.50;;;;;;5064601;28;20044;-64
2023/05/16 09:39:47;;;;;;;3.55;1.08;;;13.70;71.50;;;;;;5062885;28;20135;-64
2023/05/16 09:42:15;;;;;;;5.10;1.30;;;13.70;71.60;;;;;;5062164;28;20067;-68
2023/05/16 09:44:46;;;;;;;3.22;1.02;;;13.80;71.30;;;;;;5062806;28;20041;-68
2023/05/16 09:47:14;;;;;;;3.70;1.23;;;13.90;71.00;;;;;;5054499;28;20313;-63
2023/05/16 09:49:42;;;;;;;3.47;1.25;;;13.90;70.80;;;;;;5065749;28;20045;-63
2023/05/16 09:52:10;;;;;;;4.72;1.08;;;14.00;70.80;;;;;;5060197;28;20048;-66
2023/05/16 09:54:37;;;;;;;4.13;1.20;;;14.10;70.70;;;;;;5061470;28;20055;-65
2023/05/16 09:57:05;;;;;;;5.40;1.23;;;14.20;69.40;;;;;;5057023;28;20052;-68
2023/05/16 09:59:36;;;;;;;3.90;1.15;;;14.20;70.20;;;;;;5065483;28;20040;-68
2023/05/16 10:02:04;;;;;;;3.55;1.20;;;14.30;69.00;;;;;;5060427;28;20798;-64
2023/05/16 10:04:31;;;;;;;6.07;1.27;;;14.30;68.90;;;;;;5059093;28;20101;-63
2023/05/16 10:07:03;;;;;;;4.13;1.15;;;14.30;68.20;;;;;;5058936;28;20045;-66
2023/05/16 10:09:32;;;;;;;7.30;1.30;;;14.40;67.90;;;;;;5065441;28;20040;-66
2023/05/16 10:12:03;;;;;;;4.93;1.27;;;14.50;67.50;;;;;;5061203;28;20076;-69
2023/05/16 10:14:34;;;;;;;4.03;1.10;;;14.50;67.30;;;;;;5061960;28;20506;-69
2023/05/16 10:17:03;;;;;;;4.72;1.13;;;14.60;67.10;;;;;;5063496;28;20071;-75
2023/05/16 10:19:32;;;;;;;5.00;0.90;;;14.70;67.10;;;;;;5043255;28;20102;-76
2023/05/16 10:22:04;;;;;;;4.72;1.48;;;14.90;65.40;;;;;;5056305;28;20095;-64
2023/05/16 10:24:39;;;;;;;5.22;1.10;;;14.90;65.70;;;;;;5057353;28;20040;-64
2023/05/16 10:27:06;;;;;;;3.67;0.90;;;15.00;63.70;;;;;;5063367;28;20051;-77
2023/05/16 10:29:34;;;;;;;4.63;1.20;;;15.10;64.40;;;;;;5065157;28;20136;-75
2023/05/16 10:32:03;;;;;;;6.75;1.30;;;15.10;63.70;;;;;;5057633;28;20550;-63
2023/05/16 10:34:30;;;;;;;4.55;1.13;;;15.10;63.20;;;;;;5041957;28;20061;-63
2023/05/16 10:36:57;;;;;;;4.10;1.33;;;15.10;63.60;;;;;;5061448;28;20037;-68
2023/05/16 10:39:24;;;;;;;4.00;0.80;;;15.10;61.90;;;;;;5063840;28;20048;-67
2023/05/16 10:41:52;;;;;;;4.32;1.17;;;15.20;62.50;;;;;;5056504;28;20049;-68
2023/05/16 10:44:19;;;;;;;6.22;1.20;;;15.20;62.70;;;;;;5064089;28;20078;-69
2023/05/16 10:46:48;;;;;;;4.22;1.20;;;15.20;61.90;;;;;;5064820;28;20044;-76
2023/05/16 10:49:23;;;;;;;3.75;1.02;;;15.10;61.60;;;;;;5058923;28;20403;-77
2023/05/16 10:52:08;;;;;;;6.38;1.20;;;15.20;60.70;;;;;;5069720;28;20040;-62
2023/05/16 10:54:39;;;;;;;5.82;1.10;;;15.30;59.90;;;;;;5061679;28;20045;-63
2023/05/16 10:57:09;;;;;;;6.30;1.40;;;15.50;60.70;;;;;;5066681;28;20523;-60
2023/05/16 10:59:44;;;;;;;6.43;1.38;;;15.60;60.30;;;;;;5064745;28;20160;-61
2023/05/16 11:02:27;;;;;;;5.20;1.08;;;15.70;59.10;;;;;;5066403;28;20136;-68
2023/05/16 11:04:56;;;;;;;3.97;0.98;;;15.70;59.40;;;;;;5068717;28;20041;-69
2023/05/16 11:07:24;;;;;;;5.53;1.13;;;15.70;58.00;;;;;;5065399;28;20045;-76
2023/05/16 11:10:04;;;;;;;5.35;1.30;;;15.90;58.40;;;;;;5061355;28;20376;-75
2023/05/16 11:12:48;;;;;;;4.50;1.20;;;16.10;58.50;;;;;;5063910;28;20118;-77
2023/05/16 11:15:26;;;;;;;4.65;0.98;;;16.20;58.90;;;;;;5067965;28;20132;-76
2023/05/16 11:18:06;;;;;;;4.63;1.08;;;16.20;55.40;;;;;;5060037;28;20059;-76
2023/05/16 11:20:34;;;;;;;5.50;1.17;;;16.30;55.10;;;;;;5069215;28;20495;-67
2023/05/16 11:23:21;;;;;;;5.63;1.27;;;16.50;56.40;;;;;;5063802;28;20052;-67
2023/05/16 11:25:51;;;;;;;5.13;1.42;;;16.60;57.10;;;;;;5062471;28;20414;-65
2023/05/16 11:28:19;;;;;;;8.13;1.42;;;16.70;57.70;;;;;;5064176;28;20045;-66
2023/05/16 11:30:48;;;;;;;3.13;1.08;;;16.60;57.50;;;;;;5067676;28;20125;-76
2023/05/16 11:33:16;;;;;;;2.78;0.75;;;16.50;57.20;;;;;;5068805;28;20040;-76
2023/05/16 11:35:43;;;;;;;4.57;1.00;;;16.60;56.00;;;;;;5068877;28;20124;-64
2023/05/16 11:38:15;;;;;;;3.97;0.80;;;16.70;56.10;;;;;;5070658;28;20055;-64
2023/05/16 11:40:44;;;;;;;4.40;0.90;;;16.80;55.40;;;;;;5070585;28;20092;-62
2023/05/16 11:43:12;;;;;;;3.78;0.93;;;16.90;55.10;;;;;;5068695;28;20114;-61
2023/05/16 11:45:39;;;;;;;3.88;0.82;;;17.10;55.80;;;;;;5069945;28;20049;-76
2023/05/16 11:48:07;;;;;;;5.72;1.33;;;17.20;55.30;;;;;;5065344;28;20064;-76
2023/05/16 11:50:35;;;;;;;4.68;1.05;;;17.30;55.20;;;;;;5062407;28;20591;-66
2023/05/16 11:53:02;;;;;;;5.30;1.00;;;17.40;54.40;;;;;;5062030;28;20040;-67
2023/05/16 11:55:31;;;;;;;2.20;0.60;;;17.30;53.90;;;;;;5054730;28;20041;-76
2023/05/16 11:57:58;;;;;;;2.70;0.90;;;17.00;53.60;;;;;;5042000;28;20145;-75
2023/05/16 12:00:26;;;;;;;4.68;0.90;;;16.90;53.60;;;;;;5065784;28;20044;-61
2023/05/16 12:02:55;;;;;;;4.47;0.82;;;17.10;52.70;;;;;;5066417;28;20106;-62
2023/05/16 12:05:24;;;;;;;2.60;0.70;;;17.10;53.70;;;;;;5070053;28;20079;-64
2023/05/16 12:07:53;;;;;;;5.80;0.93;;;17.20;51.60;;;;;;5070018;28;20105;-64
2023/05/16 12:10:21;;;;;;;3.95;0.82;;;17.20;53.00;;;;;;5068986;28;20531;-68
2023/05/16 12:12:51;;;;;;;5.43;0.80;;;17.30;51.80;;;;;;5055164;28;20049;-68
2023/05/16 12:15:18;;;;;;;4.75;0.90;;;17.30;50.30;;;;;;5052026;28;20051;-68
2023/05/16 12:17:46;;;;;;;4.13;0.90;;;17.30;51.30;;;;;;5049327;28;20120;-69
2023/05/16 12:20:15;;;;;;;5.30;1.10;;;17.40;49.70;;;;;;5065243;28;20467;-68
2023/05/16 12:22:43;;;;;;;3.47;0.77;;;17.60;49.80;;;;;;5064539;28;20123;-67
2023/05/16 12:25:26;;;;;;;3.95;0.70;;;17.60;48.80;;;;;;5066972;28;20442;-67
2023/05/16 12:27:54;;;;;;;5.55;0.80;;;17.60;49.20;;;;;;5066900;28;20049;-67
2023/05/16 12:30:23;;;;;;;3.03;0.90;;;17.60;48.70;;;;;;5063163;28;20052;-67
2023/05/16 12:33:14;;;;;;;4.47;0.90;;;17.60;48.60;;;;;;5056557;28;20040;-68
2023/05/16 12:35:42;;;;;;;4.35;0.80;;;17.60;48.30;;;;;;5052747;28;20052;-67
2023/05/16 12:38:11;;;;;;;3.13;0.82;;;17.70;49.10;;;;;;5054126;28;20068;-67
2023/05/16 12:40:40;;;;;;;3.00;0.75;;;17.70;48.60;;;;;;5057749;28;20502;-75
2023/05/16 12:43:14;;;;;;;3.10;0.90;;;17.50;47.90;;;;;;5061265;28;20044;-72
2023/05/16 12:45:41;;;;;;;3.80;0.90;;;17.50;47.50;;;;;;5049544;28;20048;-73
2023/05/16 12:48:21;;;;;;;2.28;0.70;;;17.50;47.50;;;;;;5064455;28;20049;-74
2023/05/16 12:50:49;;;;;;;5.60;1.00;;;17.60;48.60;;;;;;5068264;28;20054;-74